Time;durP1;ratioP1;P1;durP2;ratioP2;P2;SDS_P1;SDS_P2;PMS_P1;PMS_P2;Temp;Humidity;BMP_temperature;BMP_pressure;BME280_temperature;BME280_humidity;BME280_pressure;Samples;Min_cycle;Max_cycle;Signal;HPM_P1;HPM_P2
2021/12/10 00:00:37;;;;;;;3.38;1.77;;;15.70;64.40;;;;;;10562487;28;20023;-56
2021/12/10 00:05:54;;;;;;;3.75;2.03;;;15.70;64.50;;;;;;10562596;28;20612;-56
2021/12/10 00:10:59;;;;;;;6.47;2.05;;;15.70;64.40;;;;;;10563123;28;20034;-56
2021/12/10 00:16:00;;;;;;;4.80;2.20;;;15.70;64.50;;;;;;10562166;28;20038;-56
2021/12/10 00:21:03;;;;;;;3.13;1.85;;;15.70;64.40;;;;;;10580148;28;20034;-55
2021/12/10 00:26:05;;;;;;;3.22;2.30;;;15.60;64.40;;;;;;10561712;28;20020;-56
2021/12/10 00:36:36;;;;;;;4.70;2.50;;;15.70;64.40;;;;;;10563433;28;20115;-56
2021/12/10 00:41:39;;;;;;;2.95;1.63;;;15.70;64.30;;;;;;10579518;28;20020;-55
2021/12/10 00:46:40;;;;;;;3.30;2.05;;;15.60;64.30;;;;;;10561243;28;20048;-56
2021/12/10 00:51:42;;;;;;;3.50;1.85;;;15.60;64.30;;;;;;10560921;28;20032;-56
2021/12/10 00:56:44;;;;;;;2.90;1.67;;;15.70;64.30;;;;;;10561326;28;20398;-56
2021/12/10 01:01:44;;;;;;;3.88;1.80;;;15.70;64.00;;;;;;10560734;28;20028;-56
2021/12/10 01:06:49;;;;;;;3.53;1.60;;;15.70;63.80;;;;;;10547440;28;20102;-57
2021/12/10 01:12:15;;;;;;;2.75;1.83;;;15.80;63.70;;;;;;10560993;28;20043;-57
2021/12/10 01:27:55;;;;;;;3.25;2.00;;;15.80;63.40;;;;;;10563639;28;20433;-56
2021/12/10 01:33:06;;;;;;;2.70;2.05;;;15.80;63.30;;;;;;10578435;28;20036;-57
2021/12/10 01:38:09;;;;;;;2.30;1.55;;;15.90;63.30;;;;;;10543869;28;20076;-56
2021/12/10 01:43:22;;;;;;;3.42;1.90;;;15.90;63.20;;;;;;10579605;28;20031;-56
2021/12/10 01:48:34;;;;;;;2.83;1.60;;;15.90;63.00;;;;;;10573554;28;20047;-55
2021/12/10 01:53:38;;;;;;;2.35;1.85;;;15.90;63.10;;;;;;10567737;28;20422;-57
2021/12/10 01:58:39;;;;;;;3.85;1.92;;;15.90;63.20;;;;;;10585541;28;20076;-56
2021/12/10 02:03:41;;;;;;;2.53;1.35;;;15.90;63.20;;;;;;10566925;28;20380;-56
2021/12/10 02:08:42;;;;;;;2.33;1.30;;;15.80;63.20;;;;;;10585188;28;20049;-56
2021/12/10 02:13:45;;;;;;;2.35;1.52;;;15.80;63.10;;;;;;10565372;28;20092;-56
2021/12/10 02:18:45;;;;;;;2.45;1.40;;;15.80;63.10;;;;;;10584767;28;20035;-56
2021/12/10 02:23:56;;;;;;;2.63;1.40;;;15.90;63.00;;;;;;10566216;28;20034;-56
2021/12/10 02:28:58;;;;;;;2.60;1.48;;;15.90;62.90;;;;;;10549708;28;20038;-56
2021/12/10 02:34:01;;;;;;;1.80;1.23;;;15.90;63.00;;;;;;10583870;28;20031;-56
2021/12/10 02:39:01;;;;;;;3.25;1.60;;;15.80;63.10;;;;;;10566249;28;20467;-56
2021/12/10 02:44:06;;;;;;;2.53;1.38;;;15.90;63.00;;;;;;10565176;28;20040;-56
2021/12/10 02:49:10;;;;;;;2.08;1.40;;;15.90;62.90;;;;;;10565413;28;20479;-56
2021/12/10 02:54:20;;;;;;;3.13;1.42;;;15.90;62.90;;;;;;10564922;28;20044;-55
2021/12/10 02:59:21;;;;;;;2.42;1.70;;;16.00;62.70;;;;;;10566111;28;20073;-56
2021/12/10 03:04:22;;;;;;;2.13;1.45;;;16.00;62.50;;;;;;10581939;28;20035;-55
2021/12/10 03:09:25;;;;;;;3.00;1.40;;;16.00;62.50;;;;;;10551776;28;20353;-56
2021/12/10 03:14:32;;;;;;;2.25;1.58;;;16.10;62.30;;;;;;10564305;28;20549;-56
2021/12/10 03:19:33;;;;;;;2.25;1.23;;;16.00;62.30;;;;;;10564678;28;20043;-56
2021/12/10 03:24:35;;;;;;;2.53;1.30;;;16.00;62.30;;;;;;10563597;28;20035;-56
2021/12/10 03:29:39;;;;;;;1.90;1.25;;;15.90;62.50;;;;;;10582079;28;20070;-56
2021/12/10 03:34:41;;;;;;;2.33;1.40;;;16.00;62.40;;;;;;10563616;28;20035;-54
2021/12/10 03:39:42;;;;;;;2.83;1.02;;;16.00;62.40;;;;;;10563538;28;20496;-56
2021/12/10 03:44:43;;;;;;;2.40;1.30;;;16.00;62.40;;;;;;10562850;28;20310;-54
2021/12/10 03:49:44;;;;;;;4.72;1.60;;;15.90;62.50;;;;;;10545889;28;20448;-56
2021/12/10 03:54:46;;;;;;;2.22;1.55;;;16.00;62.30;;;;;;10562522;28;20403;-56
2021/12/10 03:59:47;;;;;;;2.47;1.30;;;16.10;62.10;;;;;;10562864;28;20024;-56
2021/12/10 04:04:50;;;;;;;2.78;1.30;;;16.10;62.10;;;;;;10552771;28;20027;-56
2021/12/10 04:09:53;;;;;;;2.08;1.17;;;16.00;62.10;;;;;;10562123;28;20032;-56
2021/12/10 04:14:54;;;;;;;2.10;1.10;;;16.00;62.20;;;;;;10561812;28;20028;-56
2021/12/10 04:19:55;;;;;;;2.15;1.10;;;16.10;62.70;;;;;;10544972;28;20028;-56
2021/12/10 04:24:56;;;;;;;2.88;1.27;;;16.00;62.00;;;;;;10561548;28;20388;-56
2021/12/10 04:29:58;;;;;;;2.50;1.52;;;16.10;62.00;;;;;;10544792;28;20123;-56
2021/12/10 04:35:00;;;;;;;3.65;1.23;;;16.10;61.90;;;;;;10548832;28;20097;-56
2021/12/10 04:40:03;;;;;;;2.55;1.20;;;16.10;61.90;;;;;;10579743;28;20468;-54
2021/12/10 04:45:07;;;;;;;2.00;1.20;;;16.00;62.00;;;;;;10579115;28;20427;-56
2021/12/10 04:50:09;;;;;;;1.80;1.10;;;16.10;61.90;;;;;;10579438;28;20081;-57
2021/12/10 04:55:12;;;;;;;1.45;1.02;;;16.00;61.90;;;;;;10544170;28;20071;-56
2021/12/10 05:00:27;;;;;;;1.95;1.27;;;16.00;62.00;;;;;;10561287;28;20031;-55
2021/12/10 05:05:28;;;;;;;2.25;1.02;;;16.00;62.00;;;;;;10551315;28;20032;-56
2021/12/10 05:10:30;;;;;;;2.78;1.20;;;16.00;61.80;;;;;;10575770;28;20028;-57
2021/12/10 05:15:35;;;;;;;1.92;1.20;;;16.10;61.70;;;;;;10560795;28;20036;-55
2021/12/10 05:20:41;;;;;;;2.45;0.95;;;16.20;61.50;;;;;;10565501;28;20019;-56
2021/12/10 05:25:43;;;;;;;1.40;0.82;;;16.20;61.40;;;;;;10569339;28;20616;-56
2021/12/10 05:30:46;;;;;;;1.77;0.82;;;16.10;61.50;;;;;;10568350;28;20046;-56
2021/12/10 05:35:48;;;;;;;1.75;0.95;;;16.10;61.60;;;;;;10568327;28;20024;-57
2021/12/10 05:40:53;;;;;;;1.80;1.08;;;16.20;61.40;;;;;;10568165;28;20475;-57
2021/12/10 05:45:54;;;;;;;1.67;0.93;;;16.30;60.90;;;;;;10567897;28;20411;-57
2021/12/10 05:50:55;;;;;;;2.17;0.93;;;16.50;60.50;;;;;;10567697;28;20015;-55
2021/12/10 05:55:57;;;;;;;1.70;0.90;;;16.60;60.10;;;;;;10567456;28;20046;-54
2021/12/10 06:01:05;;;;;;;1.17;0.80;;;16.70;59.70;;;;;;10567209;28;20027;-57
2021/12/10 06:06:07;;;;;;;2.63;1.08;;;16.80;59.60;;;;;;10571566;28;20036;-51
2021/12/10 06:11:08;;;;;;;5.07;1.73;;;16.70;60.60;;;;;;10567139;28;20418;-52
2021/12/10 06:16:09;;;;;;;7.05;1.95;;;16.90;60.70;;;;;;10546908;28;20034;-56
2021/12/10 06:21:11;;;;;;;7.70;1.70;;;17.00;60.70;;;;;;10563510;28;20023;-56
2021/12/10 06:26:12;;;;;;;13.73;1.83;;;17.00;62.00;;;;;;10545713;28;20121;-57
2021/12/10 06:31:18;;;;;;;6.30;1.52;;;17.00;61.90;;;;;;10565756;28;20140;-56
2021/12/10 06:36:20;;;;;;;7.10;2.00;;;17.20;62.20;;;;;;10566269;28;20015;-56
2021/12/10 06:41:21;;;;;;;6.65;1.48;;;17.20;62.10;;;;;;10582763;28;20104;-54
2021/12/10 06:46:22;;;;;;;8.73;1.65;;;17.40;61.30;;;;;;10546392;28;20209;-55
2021/12/10 06:51:23;;;;;;;6.93;1.90;;;17.40;62.00;;;;;;10563651;28;20074;-50
2021/12/10 06:56:24;;;;;;;7.47;2.00;;;17.30;61.40;;;;;;10582238;28;20426;-56
2021/12/10 07:01:30;;;;;;;8.18;1.58;;;17.40;62.00;;;;;;10560465;28;20059;-54
2021/12/10 07:06:32;;;;;;;20.90;2.45;;;17.50;62.30;;;;;;10563509;28;20027;-55
2021/12/10 07:11:35;;;;;;;12.75;1.80;;;17.50;62.20;;;;;;10563111;28;20063;-49
2021/12/10 07:16:36;;;;;;;12.13;2.13;;;17.60;61.80;;;;;;10579188;28;20059;-50
2021/12/10 07:21:37;;;;;;;9.57;2.10;;;17.40;61.60;;;;;;10574985;28;20049;-50
2021/12/10 07:26:39;;;;;;;14.38;2.40;;;17.40;61.20;;;;;;10575774;28;20050;-50
2021/12/10 07:31:43;;;;;;;10.10;1.50;;;17.40;61.00;;;;;;10577218;28;20027;-52
2021/12/10 07:36:44;;;;;;;7.90;2.05;;;17.40;60.80;;;;;;10528952;28;20038;-47
2021/12/10 07:41:45;;;;;;;10.75;1.77;;;17.30;60.90;;;;;;10570291;28;20046;-47
2021/12/10 07:46:48;;;;;;;11.30;2.15;;;17.40;60.60;;;;;;10573013;28;20047;-48
2021/12/10 07:51:50;;;;;;;9.13;1.25;;;17.50;61.20;;;;;;10577234;28;20425;-52
2021/12/10 07:56:52;;;;;;;14.50;1.83;;;17.60;61.50;;;;;;10577667;28;20428;-50
2021/12/10 08:01:53;;;;;;;5.55;1.38;;;17.60;61.70;;;;;;10560569;28;20107;-52
2021/12/10 08:06:54;;;;;;;5.60;1.50;;;17.60;61.50;;;;;;10557194;28;20035;-49
2021/12/10 08:11:54;;;;;;;5.95;1.65;;;17.50;61.70;;;;;;10559841;28;20375;-50
2021/12/10 08:16:55;;;;;;;8.77;1.70;;;17.60;61.70;;;;;;10576367;28;20512;-48
2021/12/10 08:21:56;;;;;;;17.27;2.63;;;17.60;61.80;;;;;;10559401;28;20384;-48
2021/12/10 08:26:57;;;;;;;11.85;2.28;;;17.60;61.70;;;;;;10577724;28;20502;-47
2021/12/10 08:31:58;;;;;;;13.98;2.42;;;17.60;61.60;;;;;;10559079;28;20035;-53
2021/12/10 08:37:00;;;;;;;20.13;2.38;;;17.70;61.60;;;;;;10562588;28;20093;-54
2021/12/10 08:42:00;;;;;;;10.90;2.75;;;17.70;62.40;;;;;;10578681;28;20030;-51
2021/12/10 08:47:03;;;;;;;10.15;2.53;;;17.60;61.80;;;;;;10578502;28;20687;-53
2021/12/10 08:52:07;;;;;;;14.60;4.00;;;17.60;62.30;;;;;;10544635;28;20395;-52
2021/12/10 08:57:09;;;;;;;12.20;2.20;;;17.70;61.80;;;;;;10569315;28;20585;-51
2021/12/10 09:02:16;;;;;;;14.40;2.50;;;17.80;61.90;;;;;;10568055;28;20395;-53
2021/12/10 09:07:19;;;;;;;11.65;2.83;;;17.80;62.10;;;;;;10562704;28;20391;-51
2021/12/10 09:12:25;;;;;;;8.70;2.10;;;17.80;62.10;;;;;;10550373;28;20402;-47
2021/12/10 09:17:30;;;;;;;14.85;2.35;;;17.90;62.10;;;;;;10566894;28;20483;-52
2021/12/10 09:22:31;;;;;;;10.98;1.95;;;17.70;61.80;;;;;;10550747;28;20032;-50
2021/12/10 09:27:32;;;;;;;14.30;2.53;;;17.60;61.70;;;;;;10587050;28;20668;-53
2021/12/10 09:32:33;;;;;;;9.25;2.13;;;17.60;61.70;;;;;;10554817;28;20173;-51
2021/12/10 09:37:37;;;;;;;10.30;2.38;;;17.70;61.10;;;;;;10566066;28;20028;-52
2021/12/10 09:42:37;;;;;;;11.68;3.13;;;17.70;60.70;;;;;;10567734;28;20479;-53
2021/12/10 09:47:40;;;;;;;11.15;2.00;;;17.80;60.60;;;;;;10567527;28;20055;-52
2021/12/10 09:52:42;;;;;;;8.85;2.63;;;17.80;60.50;;;;;;10567720;28;20032;-53
2021/12/10 09:57:46;;;;;;;11.88;2.25;;;17.70;60.60;;;;;;10585693;28;20052;-52
2021/12/10 10:02:47;;;;;;;7.93;2.05;;;17.80;60.30;;;;;;10566668;28;20075;-53
2021/12/10 10:07:51;;;;;;;10.95;2.47;;;17.80;60.30;;;;;;10584501;28;20042;-53
2021/12/10 10:12:55;;;;;;;8.38;2.00;;;17.80;60.20;;;;;;10565411;28;20028;-51
2021/12/10 10:18:00;;;;;;;9.65;2.00;;;17.70;60.10;;;;;;10565207;28;20066;-53
2021/12/10 10:23:01;;;;;;;8.50;1.92;;;17.80;60.00;;;;;;10584015;28;20088;-53
2021/12/10 10:28:04;;;;;;;6.57;1.48;;;17.70;59.90;;;;;;10584110;28;20035;-53
2021/12/10 10:33:10;;;;;;;6.47;1.48;;;17.80;59.80;;;;;;10565367;28;20414;-52
2021/12/10 10:38:14;;;;;;;5.80;1.80;;;17.80;59.80;;;;;;10581779;28;20099;-51
2021/12/10 10:43:14;;;;;;;8.95;1.67;;;17.80;59.70;;;;;;10565162;28;20073;-52
2021/12/10 10:48:17;;;;;;;4.65;1.50;;;17.80;59.70;;;;;;10564912;28;20384;-53
2021/12/10 10:53:24;;;;;;;5.80;1.77;;;17.80;59.80;;;;;;10564231;28;20122;-52
2021/12/10 10:58:30;;;;;;;8.00;2.30;;;17.80;59.60;;;;;;10582696;28;20371;-53
2021/12/10 11:03:43;;;;;;;4.35;1.02;;;17.80;59.50;;;;;;10582518;28;20554;-53
2021/12/10 11:08:52;;;;;;;4.90;1.80;;;17.80;59.40;;;;;;10582677;28;20028;-52
2021/12/10 11:14:06;;;;;;;6.18;1.67;;;17.80;59.90;;;;;;10546542;28;20466;-52
2021/12/10 11:19:15;;;;;;;6.75;1.30;;;17.80;59.20;;;;;;10564027;28;20379;-53
2021/12/10 11:24:25;;;;;;;;;;;17.80;59.20;;;;;;10566537;28;20035;-52
2021/12/10 11:29:40;;;;;;;3.73;1.17;;;17.90;59.20;;;;;;10569765;28;20248;-54
2021/12/10 11:35:10;;;;;;;7.88;1.60;;;17.90;59.20;;;;;;10578141;28;20396;-54
2021/12/10 11:40:49;;;;;;;4.47;1.20;;;17.80;59.70;;;;;;10560797;28;20043;-53
2021/12/10 11:46:15;;;;;;;3.63;1.23;;;17.90;59.60;;;;;;10556607;28;20040;-55
2021/12/10 11:51:30;;;;;;;6.70;1.50;;;17.80;59.70;;;;;;10562903;28;20402;-51
2021/12/10 11:57:00;;;;;;;4.25;1.20;;;17.70;60.90;;;;;;10561295;28;20071;-52
2021/12/10 12:02:10;;;;;;;4.10;1.35;;;18.00;61.20;;;;;;10560846;28;20036;-51
2021/12/10 12:07:39;;;;;;;7.07;1.40;;;18.00;61.40;;;;;;10546775;28;20055;-51
2021/12/10 12:18:29;;;;;;;4.95;1.70;;;18.10;61.60;;;;;;10577033;28;20039;-51
2021/12/10 12:29:09;;;;;;;6.07;1.63;;;18.20;62.40;;;;;;10563562;28;20040;-50
2021/12/10 12:34:19;;;;;;;6.68;1.50;;;18.20;61.80;;;;;;10559891;28;20088;-51
2021/12/10 12:39:47;;;;;;;15.55;2.65;;;18.20;61.40;;;;;;10559907;28;20035;-55
2021/12/10 12:44:58;;;;;;;10.90;1.83;;;17.90;61.50;;;;;;10544273;28;20035;-56
2021/12/10 12:50:10;;;;;;;12.85;2.22;;;17.90;60.80;;;;;;10518324;28;20449;-55
2021/12/10 12:55:11;;;;;;;18.10;3.15;;;17.90;60.90;;;;;;10535441;28;20678;-55
2021/12/10 13:00:55;;;;;;;8.30;1.70;;;17.90;60.80;;;;;;10535411;28;20080;-55
2021/12/10 13:06:30;;;;;;;9.95;1.83;;;17.90;60.80;;;;;;10535901;28;20035;-55
2021/12/10 13:11:48;;;;;;;11.20;2.00;;;17.90;60.70;;;;;;10535689;28;20376;-55
2021/12/10 13:16:58;;;;;;;6.57;1.80;;;17.90;61.20;;;;;;10536248;28;20087;-55
2021/12/10 13:22:06;;;;;;;9.43;2.08;;;17.80;60.70;;;;;;10536933;28;20418;-52
2021/12/10 13:27:09;;;;;;;9.75;2.00;;;18.10;60.50;;;;;;10535184;28;20020;-57
2021/12/10 13:32:11;;;;;;;10.13;2.53;;;18.00;60.80;;;;;;10535326;28;20032;-55
2021/12/10 13:37:15;;;;;;;18.95;3.22;;;18.10;60.60;;;;;;10530988;28;20512;-56
2021/12/10 13:42:16;;;;;;;27.52;4.63;;;18.00;61.40;;;;;;10532137;28;20028;-55
2021/12/10 13:47:23;;;;;;;21.45;3.97;;;17.90;61.00;;;;;;10544919;28;20054;-55
2021/12/10 13:52:51;;;;;;;22.85;4.15;;;18.10;61.60;;;;;;10583545;28;20031;-53
2021/12/10 13:58:33;;;;;;;15.07;2.85;;;18.10;62.00;;;;;;10585552;28;20024;-54
2021/12/10 14:04:04;;;;;;;14.38;3.97;;;18.10;62.10;;;;;;10567048;28;20055;-53
2021/12/10 14:09:43;;;;;;;17.10;2.95;;;18.30;62.10;;;;;;10584346;28;20371;-52
2021/12/10 14:14:56;;;;;;;12.80;3.45;;;18.40;62.30;;;;;;10570328;28;20111;-55
2021/12/10 14:20:07;;;;;;;17.58;3.08;;;18.40;62.60;;;;;;10567027;28;20110;-54
2021/12/10 14:25:34;;;;;;;18.80;2.75;;;18.50;62.90;;;;;;10567826;28;20028;-55
2021/12/10 14:30:40;;;;;;;10.52;2.50;;;18.40;62.70;;;;;;10550699;28;20028;-55
2021/12/10 14:35:54;;;;;;;7.80;2.13;;;18.40;63.00;;;;;;10582017;28;20138;-55
2021/12/10 14:41:04;;;;;;;12.95;3.20;;;18.40;63.30;;;;;;10581831;28;20027;-52
2021/12/10 14:46:17;;;;;;;16.75;3.10;;;18.50;63.20;;;;;;10564251;28;20039;-54
2021/12/10 14:51:18;;;;;;;18.52;3.22;;;18.40;63.00;;;;;;10581450;28;20467;-52
2021/12/10 14:56:36;;;;;;;18.10;2.90;;;18.40;63.30;;;;;;10563079;28;20027;-52
2021/12/10 15:01:59;;;;;;;19.83;4.40;;;18.40;63.30;;;;;;10562877;28;20042;-52
2021/12/10 15:07:13;;;;;;;22.08;3.88;;;18.20;62.90;;;;;;10561425;28;20028;-52
2021/12/10 15:12:14;;;;;;;15.02;3.53;;;18.00;62.80;;;;;;10560911;28;20040;-53
2021/12/10 15:17:17;;;;;;;14.15;3.95;;;18.00;61.70;;;;;;10545599;28;20364;-55
2021/12/10 15:22:37;;;;;;;15.18;3.67;;;18.00;61.40;;;;;;10562977;28;20023;-55
2021/12/10 15:27:42;;;;;;;13.35;3.38;;;17.90;62.20;;;;;;10563880;28;20035;-55
2021/12/10 15:32:58;;;;;;;21.75;3.67;;;18.00;61.90;;;;;;10562317;28;20054;-52
2021/12/10 15:38:21;;;;;;;12.43;2.53;;;18.00;62.10;;;;;;10540605;28;20498;-52
2021/12/10 15:43:45;;;;;;;13.70;3.05;;;18.00;63.10;;;;;;10563152;28;20039;-52
2021/12/10 15:48:50;;;;;;;15.50;3.13;;;18.10;62.30;;;;;;10551839;28;20136;-52
2021/12/10 15:53:56;;;;;;;12.57;2.85;;;18.10;63.00;;;;;;10562169;28;20027;-52
2021/12/10 15:59:00;;;;;;;9.73;3.00;;;18.20;62.40;;;;;;10579691;28;20034;-53
2021/12/10 16:04:14;;;;;;;9.73;3.42;;;18.30;62.10;;;;;;10560263;28;20040;-52
2021/12/10 16:09:23;;;;;;;12.52;3.92;;;18.20;62.10;;;;;;10553687;28;20713;-51
2021/12/10 16:14:31;;;;;;;8.30;2.35;;;18.20;62.90;;;;;;10561481;28;20039;-54
2021/12/10 16:19:32;;;;;;;8.05;2.47;;;18.50;63.30;;;;;;10560715;28;20023;-52
2021/12/10 16:24:43;;;;;;;16.63;3.72;;;18.50;64.30;;;;;;10542772;28;20072;-52
2021/12/10 16:29:56;;;;;;;7.57;2.55;;;18.40;64.10;;;;;;10577133;28;20487;-53
2021/12/10 16:35:05;;;;;;;17.35;5.07;;;18.30;64.50;;;;;;10560709;28;20063;-51
2021/12/10 16:40:16;;;;;;;7.60;2.47;;;18.40;64.60;;;;;;10572096;28;20038;-55
2021/12/10 16:45:18;;;;;;;15.18;3.45;;;18.50;63.90;;;;;;10544828;28;20035;-56
2021/12/10 16:50:27;;;;;;;15.07;3.17;;;18.60;64.30;;;;;;10579617;28;20022;-56
2021/12/10 16:55:34;;;;;;;12.98;3.15;;;18.30;64.10;;;;;;10561362;28;20039;-55
2021/12/10 17:00:43;;;;;;;12.93;3.03;;;18.30;63.00;;;;;;10560899;28;20024;-55
2021/12/10 17:05:46;;;;;;;10.60;2.85;;;18.10;62.50;;;;;;10535849;28;20110;-55
2021/12/10 17:10:49;;;;;;;10.10;3.33;;;18.10;62.10;;;;;;10549586;28;20031;-54
2021/12/10 17:15:50;;;;;;;9.40;2.78;;;18.20;61.40;;;;;;10563775;28;20059;-55
2021/12/10 17:21:04;;;;;;;16.35;3.10;;;18.30;61.70;;;;;;10566995;28;20028;-54
2021/12/10 17:26:16;;;;;;;13.60;2.67;;;18.40;64.40;;;;;;10584452;28;20038;-56
2021/12/10 17:31:28;;;;;;;16.67;3.95;;;18.50;63.40;;;;;;10585394;28;20036;-55
2021/12/10 17:36:44;;;;;;;13.93;4.00;;;18.50;63.80;;;;;;10583710;28;20028;-54
2021/12/10 17:41:47;;;;;;;9.45;2.72;;;18.40;64.10;;;;;;10581542;28;20436;-49
2021/12/10 17:46:59;;;;;;;12.50;2.70;;;18.40;65.40;;;;;;10564600;28;20044;-54
2021/12/10 17:52:05;;;;;;;14.75;2.58;;;18.50;64.30;;;;;;10565580;28;20038;-53
2021/12/10 17:57:20;;;;;;;6.75;2.47;;;18.40;64.20;;;;;;10583719;28;20024;-53
2021/12/10 18:02:28;;;;;;;10.23;2.83;;;18.50;64.40;;;;;;10548242;28;20114;-55
2021/12/10 18:07:29;;;;;;;7.95;2.47;;;18.30;64.20;;;;;;10563939;28;20023;-55
2021/12/10 18:12:34;;;;;;;5.60;2.33;;;18.40;64.10;;;;;;10546677;28;20357;-54
2021/12/10 18:17:49;;;;;;;9.35;2.58;;;18.20;64.00;;;;;;10563838;28;20020;-54
2021/12/10 18:23:23;;;;;;;9.68;2.05;;;18.30;63.90;;;;;;10563233;28;20039;-54
2021/12/10 18:28:27;;;;;;;10.48;2.92;;;18.20;63.90;;;;;;10522781;28;20754;-53
2021/12/10 18:33:33;;;;;;;4.95;1.65;;;18.30;64.10;;;;;;10546240;28;20031;-53
2021/12/10 18:38:34;;;;;;;8.20;1.77;;;18.40;63.30;;;;;;10543514;28;20024;-54
2021/12/10 18:43:43;;;;;;;9.95;1.75;;;18.30;63.80;;;;;;10552001;28;20031;-55
2021/12/10 18:48:45;;;;;;;;;;;18.20;63.70;;;;;;10553322;28;20503;-55
2021/12/10 18:53:55;;;;;;;9.52;2.42;;;18.20;63.70;;;;;;10546455;28;19920;-55
2021/12/10 18:59:00;;;;;;;4.95;1.65;;;18.30;63.50;;;;;;10562786;28;20090;-54
2021/12/10 19:04:17;;;;;;;7.50;2.38;;;18.30;63.60;;;;;;10579824;28;20028;-56
2021/12/10 19:09:25;;;;;;;10.10;1.90;;;18.30;63.50;;;;;;10540397;28;20113;-55
2021/12/10 19:14:32;;;;;;;7.40;1.73;;;18.30;63.50;;;;;;10546549;28;20028;-54
2021/12/10 19:19:46;;;;;;;6.72;1.90;;;18.20;63.30;;;;;;10542030;28;20430;-54
2021/12/10 19:24:57;;;;;;;7.68;2.22;;;18.20;63.40;;;;;;10566032;28;20042;-55
2021/12/10 19:30:11;;;;;;;7.70;2.50;;;18.30;63.40;;;;;;10562458;28;20042;-56
2021/12/10 19:35:21;;;;;;;3.40;1.60;;;18.30;63.30;;;;;;10580122;28;20040;-55
2021/12/10 19:40:42;;;;;;;5.32;2.08;;;18.30;63.30;;;;;;10551727;28;20048;-55
2021/12/10 19:46:17;;;;;;;5.13;2.28;;;18.30;63.30;;;;;;10562350;28;20075;-55
2021/12/10 19:51:33;;;;;;;5.90;1.50;;;18.30;63.10;;;;;;10537048;28;20062;-55
2021/12/10 19:56:50;;;;;;;4.20;1.50;;;18.30;63.10;;;;;;10558502;28;20040;-55
2021/12/10 20:02:19;;;;;;;7.10;1.65;;;18.30;63.10;;;;;;10547724;28;20024;-55
2021/12/10 20:07:24;;;;;;;7.23;1.70;;;18.30;63.20;;;;;;10563758;28;20487;-55
2021/12/10 20:12:38;;;;;;;7.18;1.67;;;18.20;63.10;;;;;;10562132;28;20027;-56
2021/12/10 20:17:48;;;;;;;9.05;1.63;;;18.10;63.20;;;;;;10519999;28;20579;-55
2021/12/10 20:23:04;;;;;;;4.53;1.30;;;18.00;63.70;;;;;;10545110;28;20128;-53
2021/12/10 20:28:22;;;;;;;6.30;1.88;;;17.90;64.00;;;;;;10560338;28;20510;-53
2021/12/10 20:33:31;;;;;;;5.43;1.63;;;17.70;64.20;;;;;;10578132;28;20376;-53
2021/12/10 20:38:46;;;;;;;5.05;1.40;;;17.70;64.50;;;;;;10554206;28;20055;-53
2021/12/10 20:43:54;;;;;;;3.97;1.08;;;17.50;64.70;;;;;;10526986;28;20411;-54
2021/12/10 20:49:14;;;;;;;5.25;1.40;;;17.40;65.00;;;;;;10580525;28;20096;-53
2021/12/10 20:54:40;;;;;;;3.55;1.58;;;17.40;65.20;;;;;;10569045;28;20071;-54
2021/12/10 21:00:04;;;;;;;3.05;1.20;;;17.30;65.30;;;;;;10571569;28;20508;-54
2021/12/10 21:05:21;;;;;;;4.82;1.50;;;17.20;65.40;;;;;;10586887;28;20035;-54
2021/12/10 21:10:38;;;;;;;2.55;1.35;;;17.10;65.50;;;;;;10568821;28;20031;-53
2021/12/10 21:15:57;;;;;;;2.70;1.30;;;17.00;65.50;;;;;;10564239;28;20032;-54
2021/12/10 21:21:14;;;;;;;5.25;1.60;;;17.00;65.30;;;;;;10587459;28;20035;-54
2021/12/10 21:26:34;;;;;;;4.38;1.83;;;16.90;65.90;;;;;;10566106;28;20051;-54
2021/12/10 21:32:04;;;;;;;5.53;1.63;;;16.90;66.00;;;;;;10567744;28;20430;-55
2021/12/10 21:42:31;;;;;;;2.53;1.42;;;16.80;66.00;;;;;;10585032;28;20055;-54
2021/12/10 21:47:37;;;;;;;3.28;1.35;;;16.70;65.90;;;;;;10551780;28;20047;-54
2021/12/10 21:52:42;;;;;;;3.63;1.50;;;16.70;66.00;;;;;;10568104;28;20036;-53
2021/12/10 21:57:49;;;;;;;2.58;1.52;;;16.70;65.90;;;;;;10568193;28;20487;-55
2021/12/10 22:03:30;;;;;;;3.50;1.70;;;16.60;65.90;;;;;;10566811;28;20032;-54
2021/12/10 22:08:42;;;;;;;2.95;1.50;;;16.50;65.80;;;;;;10555854;28;20051;-54
2021/12/10 22:14:05;;;;;;;3.38;1.20;;;16.50;65.90;;;;;;10583887;28;20127;-54
2021/12/10 22:19:16;;;;;;;3.78;1.63;;;16.50;65.90;;;;;;10567289;28;20024;-54
2021/12/10 22:24:22;;;;;;;4.47;1.92;;;16.40;66.00;;;;;;10567311;28;20032;-55
2021/12/10 22:29:31;;;;;;;2.45;1.02;;;16.40;65.80;;;;;;10567078;28;20040;-54
2021/12/10 22:34:46;;;;;;;3.27;1.43;;;16.30;65.80;;;;;;10583173;28;20043;-54
2021/12/10 22:39:58;;;;;;;2.75;1.45;;;16.30;65.90;;;;;;10566539;28;20072;-54
2021/12/10 22:45:36;;;;;;;3.03;1.63;;;16.30;65.80;;;;;;10549775;28;20380;-54
2021/12/10 22:50:53;;;;;;;3.20;2.00;;;16.20;65.90;;;;;;10565351;28;20058;-54
2021/12/10 22:55:57;;;;;;;4.35;1.63;;;16.20;65.70;;;;;;10564870;28;20035;-54
2021/12/10 23:00:58;;;;;;;3.25;1.75;;;16.20;65.70;;;;;;10565773;28;20032;-54
2021/12/10 23:06:07;;;;;;;4.53;1.88;;;16.10;65.60;;;;;;10582859;28;20035;-54
2021/12/10 23:11:19;;;;;;;;;;;16.10;65.40;;;;;;10566168;28;20077;-53
2021/12/10 23:16:31;;;;;;;2.85;1.42;;;16.10;65.50;;;;;;10547912;28;19911;-54
2021/12/10 23:21:47;;;;;;;4.28;1.92;;;16.00;65.50;;;;;;10565029;28;20106;-55
2021/12/10 23:27:09;;;;;;;3.75;2.25;;;16.00;65.60;;;;;;10563706;28;20457;-54
2021/12/10 23:33:21;;;;;;;3.13;1.77;;;16.00;65.50;;;;;;10582096;28;20028;-54
2021/12/10 23:39:06;;;;;;;3.15;1.83;;;15.90;65.40;;;;;;10537407;28;20046;-52
2021/12/10 23:44:37;;;;;;;2.53;1.48;;;15.90;65.40;;;;;;10563262;28;20047;-55
2021/12/10 23:49:54;;;;;;;2.80;1.60;;;15.90;65.50;;;;;;10534747;28;20052;-55
2021/12/10 23:55:09;;;;;;;3.22;2.20;;;15.90;65.50;;;;;;10504077;28;20035;-54
